Portada
METAR-TAF:

METAR-TAF

Aeropuertos :

Tabas, Irán

latitud: 33-36N, longitud: 056-55E, altitud: 710 m

Observación

El informe se hizo hace 31 minutos, a las 20:00 UTC
Viento 8 kt del norte-noroeste
Temperatura 23°C
Humedad 23%
Presión 1009 hPa

METAR: OIMT 202000Z AUTO 33008KT //// // ////// 23/01 Q1009

Hora: 01:01 (20:31 UTC)


TAF: falta

Observaciones y pronósticos meteorológicos de más de 4000 aeropuertos (mensajes METAR y TAF).

Los puntos amarillos y rojos representan las estaciones disponibles.

Ponga el ratón en el punto deseado para ver el nombre de la estación.

Haga clic para ver las observaciones y los pronósticos meteorológicos.

Para cambiar el mapa : haga clic en los botones verdes con una cruz de color negro para hacer un zoom, en el botón verde con un guión para alejar o en las flechas verdes para mapas adyacentes.


METAR-TAF: